Time;durP1;ratioP1;P1;durP2;ratioP2;P2;SDS_P1;SDS_P2;PMS_P1;PMS_P2;Temp;Humidity;BMP_temperature;BMP_pressure;BME280_temperature;BME280_humidity;BME280_pressure;Samples;Min_cycle;Max_cycle;Signal;HPM_P1;HPM_P2
2022/01/16 00:01:18;;;;;;;61.35;17.00;;;2.40;99.90;;;;;;6309658;22;20056;-76
2022/01/16 00:06:28;;;;;;;68.95;18.08;;;2.50;99.90;;;;;;6311899;22;20068;-76
2022/01/16 00:08:53;;;;;;;57.33;17.27;;;2.50;99.90;;;;;;6310598;22;20082;-76
2022/01/16 00:11:19;;;;;;;63.95;17.10;;;2.50;99.90;;;;;;6311394;22;19995;-76
2022/01/16 00:13:44;;;;;;;55.55;16.17;;;2.50;99.90;;;;;;6309389;22;20003;-76
2022/01/16 00:16:13;;;;;;;69.30;17.83;;;2.50;99.90;;;;;;6310857;22;20060;-76
2022/01/16 00:18:58;;;;;;;58.55;15.23;;;2.50;99.90;;;;;;6311604;22;20007;-76
2022/01/16 00:21:26;;;;;;;58.15;15.10;;;2.50;99.90;;;;;;6309396;22;20003;-76
2022/01/16 00:23:53;;;;;;;61.47;16.73;;;2.50;99.90;;;;;;6309429;22;19994;-76
2022/01/16 00:26:20;;;;;;;57.05;16.63;;;2.50;99.90;;;;;;6310070;22;20033;-76
2022/01/16 00:28:45;;;;;;;58.35;15.93;;;2.50;99.90;;;;;;6310124;22;20049;-76
2022/01/16 00:31:11;;;;;;;58.40;16.85;;;2.50;99.90;;;;;;6308195;22;19999;-76
2022/01/16 00:33:42;;;;;;;54.47;14.50;;;2.60;99.90;;;;;;6307999;22;20003;-76
2022/01/16 00:36:08;;;;;;;61.83;15.75;;;2.60;99.90;;;;;;6309895;22;20007;-75
2022/01/16 00:38:34;;;;;;;64.82;15.27;;;2.60;99.90;;;;;;6310897;22;19999;-75
2022/01/16 00:41:01;;;;;;;48.55;15.00;;;2.60;99.90;;;;;;6310144;22;20003;-75
2022/01/16 00:43:27;;;;;;;46.78;13.25;;;2.60;99.90;;;;;;6310265;22;20011;-76
2022/01/16 00:45:52;;;;;;;49.97;15.73;;;2.60;99.90;;;;;;6309977;22;20426;-76
2022/01/16 00:48:18;;;;;;;53.83;14.20;;;2.50;99.90;;;;;;6308598;22;20335;-76
2022/01/16 00:50:43;;;;;;;56.90;15.38;;;2.50;99.90;;;;;;6308143;22;20380;-76
2022/01/16 00:53:09;;;;;;;55.35;15.77;;;2.50;99.90;;;;;;6307905;22;20003;-75
2022/01/16 00:55:36;;;;;;;62.85;14.68;;;2.50;99.90;;;;;;6310446;22;20022;-76
2022/01/16 00:58:02;;;;;;;50.05;14.65;;;2.50;99.90;;;;;;6308346;22;20006;-76
2022/01/16 01:00:31;;;;;;;55.13;13.82;;;2.50;99.90;;;;;;6308124;22;20007;-76
2022/01/16 01:02:56;;;;;;;67.90;13.68;;;2.50;99.90;;;;;;6309612;22;20422;-76
2022/01/16 01:05:22;;;;;;;53.10;15.27;;;2.50;99.90;;;;;;6310410;22;19995;-76
2022/01/16 01:07:48;;;;;;;54.72;13.23;;;2.50;99.90;;;;;;6310376;22;20000;-76
2022/01/16 01:10:13;;;;;;;51.45;14.00;;;2.50;99.90;;;;;;6310209;22;20006;-76
2022/01/16 01:13:07;;;;;;;48.58;13.38;;;2.40;99.90;;;;;;6309879;22;20495;-75
2022/01/16 01:15:42;;;;;;;53.40;14.75;;;2.50;99.90;;;;;;6310090;22;19999;-75
2022/01/16 01:18:08;;;;;;;51.92;14.77;;;2.40;99.90;;;;;;6309770;22;20006;-75
2022/01/16 01:20:34;;;;;;;55.72;14.68;;;2.40;99.90;;;;;;6309771;22;20372;-75
2022/01/16 01:22:59;;;;;;;55.58;13.15;;;2.40;99.90;;;;;;6309697;22;19999;-77
2022/01/16 01:25:25;;;;;;;55.25;14.13;;;2.50;99.90;;;;;;6309248;22;20476;-77
2022/01/16 01:27:50;;;;;;;53.45;15.18;;;2.50;99.90;;;;;;6308002;22;20031;-76
2022/01/16 01:30:19;;;;;;;59.10;14.52;;;2.50;99.90;;;;;;6309798;22;20078;-76
2022/01/16 01:32:46;;;;;;;44.53;11.75;;;2.50;99.90;;;;;;6310397;22;20078;-77
2022/01/16 01:35:13;;;;;;;64.30;16.45;;;2.50;99.90;;;;;;6309369;22;20026;-76
2022/01/16 01:37:40;;;;;;;63.13;16.00;;;2.50;99.90;;;;;;6309845;22;20042;-75
2022/01/16 01:40:09;;;;;;;56.33;14.48;;;2.60;99.90;;;;;;6310464;22;20003;-75
2022/01/16 01:42:43;;;;;;;57.88;14.98;;;2.60;99.90;;;;;;6308985;22;20010;-75
2022/01/16 01:53:22;;;;;;;56.75;14.05;;;2.60;99.90;;;;;;6310236;22;20018;-76
2022/01/16 01:55:48;;;;;;;50.95;14.80;;;2.60;99.90;;;;;;6309723;22;19999;-76
2022/01/16 01:58:18;;;;;;;60.53;16.13;;;2.60;99.90;;;;;;6307680;22;20007;-76
2022/01/16 02:00:44;;;;;;;55.90;15.38;;;2.60;99.90;;;;;;6309583;22;20330;-76
2022/01/16 02:03:18;;;;;;;60.58;15.48;;;2.60;99.90;;;;;;6309390;22;19995;-77
2022/01/16 02:05:45;;;;;;;52.15;15.40;;;2.60;99.90;;;;;;6310083;22;20484;-76
2022/01/16 02:08:11;;;;;;;67.57;15.60;;;2.60;99.90;;;;;;6309063;22;20082;-76
2022/01/16 02:10:38;;;;;;;65.93;15.02;;;2.60;99.90;;;;;;6307533;22;20369;-76
2022/01/16 02:13:07;;;;;;;60.25;15.88;;;2.60;99.90;;;;;;6309637;22;20052;-76
2022/01/16 02:32:12;;;;;;;74.35;15.48;;;2.80;99.90;;;;;;6320390;22;20014;-76
2022/01/16 02:34:43;;;;;;;64.03;16.50;;;2.70;99.90;;;;;;6308564;22;20082;-76
2022/01/16 02:37:12;;;;;;;64.03;16.95;;;2.80;99.90;;;;;;6309146;22;20007;-76
2022/01/16 02:39:41;;;;;;;62.80;14.65;;;2.80;99.90;;;;;;6309346;22;20011;-76
2022/01/16 02:42:10;;;;;;;65.05;15.82;;;2.80;99.90;;;;;;6307199;22;20092;-76
2022/01/16 02:44:48;;;;;;;70.82;16.02;;;2.80;99.90;;;;;;6308703;22;20440;-76
2022/01/16 02:47:17;;;;;;;75.15;16.90;;;2.90;99.90;;;;;;6309206;22;20052;-76
2022/01/16 02:49:47;;;;;;;60.78;17.48;;;2.90;99.90;;;;;;6308668;22;20005;-76
2022/01/16 02:52:16;;;;;;;59.90;15.35;;;2.90;99.90;;;;;;6308572;22;20078;-76
2022/01/16 02:54:44;;;;;;;66.97;16.90;;;2.90;99.90;;;;;;6308929;22;20082;-76
2022/01/16 02:57:12;;;;;;;61.53;15.63;;;2.90;99.90;;;;;;6307064;22;20057;-77
2022/01/16 02:59:39;;;;;;;74.20;18.52;;;2.90;99.90;;;;;;6308821;22;20222;-77
2022/01/16 03:02:08;;;;;;;75.25;18.23;;;2.90;99.90;;;;;;6308636;22;20545;-76
2022/01/16 03:04:33;;;;;;;61.63;14.60;;;2.90;99.90;;;;;;6308932;22;20076;-76
2022/01/16 03:07:00;;;;;;;71.20;17.77;;;2.90;99.90;;;;;;6308572;22;19999;-76
2022/01/16 03:09:33;;;;;;;76.07;18.60;;;2.90;99.90;;;;;;6308606;22;20415;-76
2022/01/16 03:11:59;;;;;;;70.20;16.55;;;2.90;99.90;;;;;;6307010;22;20391;-75
2022/01/16 03:14:24;;;;;;;77.00;18.13;;;3.00;99.90;;;;;;6308719;22;20000;-76
2022/01/16 03:16:52;;;;;;;64.82;16.63;;;3.00;99.90;;;;;;6308500;22;20003;-76
2022/01/16 03:22:05;;;;;;;67.47;17.15;;;3.10;99.90;;;;;;6308718;22;20019;-76
2022/01/16 03:24:43;;;;;;;58.92;16.15;;;3.10;99.90;;;;;;6306780;22;20007;-76
2022/01/16 03:27:15;;;;;;;67.00;17.70;;;3.10;99.90;;;;;;6308481;22;20002;-76
2022/01/16 03:29:43;;;;;;;69.32;17.15;;;3.10;99.90;;;;;;6308384;22;20449;-76
2022/01/16 03:32:11;;;;;;;68.80;16.60;;;3.10;99.90;;;;;;6307015;22;20430;-76
2022/01/16 03:34:37;;;;;;;71.88;17.45;;;3.10;99.90;;;;;;6308340;22;20000;-76
2022/01/16 03:37:03;;;;;;;64.90;17.65;;;3.20;99.90;;;;;;6308701;22;20007;-77
2022/01/16 03:39:29;;;;;;;64.07;17.02;;;3.20;99.90;;;;;;6309107;22;20316;-77
2022/01/16 03:41:56;;;;;;;73.55;18.67;;;3.20;99.90;;;;;;6308389;22;20014;-77
2022/01/16 03:44:22;;;;;;;71.82;19.30;;;3.20;99.90;;;;;;6306765;22;20003;-77
2022/01/16 03:46:48;;;;;;;74.78;18.58;;;3.20;99.90;;;;;;6308613;22;19995;-76
2022/01/16 03:49:16;;;;;;;70.82;18.85;;;3.20;99.90;;;;;;6307111;22;20049;-76
2022/01/16 03:51:43;;;;;;;68.30;17.42;;;3.20;99.90;;;;;;6308159;22;19995;-77
2022/01/16 03:54:11;;;;;;;66.03;17.95;;;3.20;99.90;;;;;;6308336;22;19999;-77
2022/01/16 03:56:37;;;;;;;71.40;18.33;;;3.20;99.90;;;;;;6306595;22;20010;-77
2022/01/16 03:59:03;;;;;;;72.35;18.80;;;3.30;99.90;;;;;;6306383;22;20029;-77
2022/01/16 04:01:29;;;;;;;79.88;19.95;;;3.30;99.90;;;;;;6308562;22;19999;-77
2022/01/16 04:03:55;;;;;;;71.05;18.20;;;3.30;99.90;;;;;;6308471;22;20021;-77
2022/01/16 04:06:21;;;;;;;74.80;19.70;;;3.30;99.90;;;;;;6308891;22;19999;-77
2022/01/16 04:08:55;;;;;;;73.38;19.15;;;3.30;99.90;;;;;;6308574;22;19995;-77
2022/01/16 04:11:26;;;;;;;76.82;21.15;;;3.30;99.90;;;;;;6308856;22;20126;-77
2022/01/16 04:14:02;;;;;;;66.38;19.33;;;3.40;99.90;;;;;;6308323;22;19999;-77
2022/01/16 04:16:27;;;;;;;77.53;19.77;;;3.40;99.90;;;;;;6308325;22;20083;-77
2022/01/16 04:18:53;;;;;;;76.47;19.92;;;3.40;99.90;;;;;;6308548;22;20326;-77
2022/01/16 04:21:20;;;;;;;73.40;18.50;;;3.40;99.90;;;;;;6306397;22;20327;-77
2022/01/16 04:23:46;;;;;;;83.30;19.27;;;3.40;99.90;;;;;;6309129;22;20010;-77
2022/01/16 04:26:12;;;;;;;81.40;20.63;;;3.40;99.90;;;;;;6309447;22;20019;-77
2022/01/16 04:28:38;;;;;;;78.05;21.10;;;3.40;99.90;;;;;;6310300;22;19995;-77
2022/01/16 04:31:04;;;;;;;89.53;23.15;;;3.40;99.90;;;;;;6310304;22;19999;-77
2022/01/16 04:33:29;;;;;;;83.28;20.30;;;3.40;99.90;;;;;;6310097;22;20006;-77
2022/01/16 04:35:55;;;;;;;81.15;21.73;;;3.40;99.90;;;;;;6310480;22;20003;-77
2022/01/16 04:38:21;;;;;;;82.15;20.63;;;3.40;99.90;;;;;;6310746;22;20381;-77
2022/01/16 04:43:49;;;;;;;81.43;22.92;;;3.50;99.90;;;;;;6310773;22;20022;-77
2022/01/16 04:46:19;;;;;;;80.93;21.65;;;3.50;99.90;;;;;;6310474;22;20097;-77
2022/01/16 04:48:45;;;;;;;87.85;25.02;;;3.50;99.90;;;;;;6310787;22;20437;-77
2022/01/16 04:51:11;;;;;;;69.00;21.63;;;3.50;99.90;;;;;;6309436;22;20082;-77
2022/01/16 04:53:39;;;;;;;83.15;22.08;;;3.50;99.90;;;;;;6310072;22;20480;-77
2022/01/16 04:56:05;;;;;;;70.82;21.17;;;3.50;99.90;;;;;;6308426;22;20315;-77
2022/01/16 04:58:31;;;;;;;72.70;21.23;;;3.50;99.90;;;;;;6309961;22;20363;-76
2022/01/16 05:00:56;;;;;;;76.10;21.83;;;3.50;99.90;;;;;;6309719;22;20049;-76
2022/01/16 05:03:27;;;;;;;71.55;23.05;;;3.50;99.90;;;;;;6307686;22;20023;-76
2022/01/16 05:05:53;;;;;;;65.63;21.17;;;3.50;99.90;;;;;;6309981;22;20429;-76
2022/01/16 05:08:18;;;;;;;63.13;19.52;;;3.50;99.90;;;;;;6310251;22;19999;-77
2022/01/16 05:10:44;;;;;;;66.68;20.42;;;3.50;99.90;;;;;;6309093;22;20090;-77
2022/01/16 05:18:47;;;;;;;65.47;18.92;;;3.60;99.90;;;;;;6309476;22;20522;-77
2022/01/16 05:21:13;;;;;;;58.05;19.75;;;3.60;99.90;;;;;;6309247;22;20030;-77
2022/01/16 05:23:41;;;;;;;54.75;18.48;;;3.50;99.90;;;;;;6309894;22;20035;-77
2022/01/16 05:26:07;;;;;;;63.95;20.08;;;3.50;99.90;;;;;;6309335;22;20023;-77
2022/01/16 05:28:33;;;;;;;55.20;18.73;;;3.60;99.90;;;;;;6309558;22;20427;-77
2022/01/16 05:30:58;;;;;;;51.95;19.65;;;3.60;99.90;;;;;;6309373;22;20079;-77
2022/01/16 05:33:24;;;;;;;55.67;18.90;;;3.60;99.90;;;;;;6309682;22;20057;-77
2022/01/16 05:35:50;;;;;;;50.90;19.10;;;3.60;99.90;;;;;;6307575;22;20484;-77
2022/01/16 05:38:15;;;;;;;53.22;19.63;;;3.60;99.90;;;;;;6309588;22;20007;-77
2022/01/16 05:40:42;;;;;;;48.08;17.60;;;3.60;99.90;;;;;;6307763;22;20423;-77
2022/01/16 05:43:09;;;;;;;53.60;19.58;;;3.70;99.90;;;;;;6309002;22;20133;-76
2022/01/16 05:45:35;;;;;;;51.88;18.58;;;3.70;99.90;;;;;;6308137;22;20021;-77
2022/01/16 05:48:01;;;;;;;48.83;18.63;;;3.70;99.90;;;;;;6309926;22;20010;-77
2022/01/16 05:50:27;;;;;;;52.03;19.90;;;3.70;99.90;;;;;;6307572;22;19999;-77
2022/01/16 05:52:52;;;;;;;51.13;17.48;;;3.70;99.90;;;;;;6308112;22;20010;-78
2022/01/16 05:55:19;;;;;;;47.58;16.27;;;3.70;99.90;;;;;;6308224;22;20003;-76
2022/01/16 05:57:45;;;;;;;50.78;17.88;;;3.70;99.90;;;;;;6308226;22;20441;-76
2022/01/16 06:00:13;;;;;;;49.00;19.77;;;3.70;99.90;;;;;;6310230;22;20003;-73
2022/01/16 06:02:38;;;;;;;56.30;18.90;;;3.70;99.90;;;;;;6282479;22;20102;-73
2022/01/16 06:05:05;;;;;;;56.67;19.58;;;3.70;99.90;;;;;;6309622;22;20023;-73
2022/01/16 06:07:31;;;;;;;46.03;17.50;;;3.80;99.90;;;;;;6307681;22;20003;-74
2022/01/16 06:09:57;;;;;;;50.40;17.92;;;3.80;99.90;;;;;;6309442;22;20030;-75
2022/01/16 06:12:22;;;;;;;46.08;17.90;;;3.90;99.90;;;;;;6309413;22;20070;-75
2022/01/16 06:14:48;;;;;;;46.67;16.08;;;3.80;99.90;;;;;;6307274;22;20031;-77
2022/01/16 06:17:14;;;;;;;44.75;16.80;;;3.80;99.90;;;;;;6309200;22;20422;-77
2022/01/16 06:19:40;;;;;;;43.17;17.23;;;3.80;99.90;;;;;;6308860;22;20392;-77
2022/01/16 06:22:05;;;;;;;46.20;17.88;;;3.80;99.90;;;;;;6307172;22;20007;-77
2022/01/16 06:24:31;;;;;;;45.15;16.70;;;3.80;99.90;;;;;;6308719;22;19999;-77
2022/01/16 06:26:56;;;;;;;42.00;17.02;;;3.70;99.90;;;;;;6308843;22;20007;-77
2022/01/16 06:29:22;;;;;;;42.20;15.98;;;3.80;99.90;;;;;;6307068;22;20428;-77
2022/01/16 06:31:48;;;;;;;46.70;18.23;;;3.80;99.90;;;;;;6306891;22;20074;-77
2022/01/16 06:34:14;;;;;;;44.33;16.23;;;3.80;99.90;;;;;;6308834;22;20006;-78
2022/01/16 06:36:40;;;;;;;47.75;16.63;;;3.80;99.90;;;;;;6307283;22;20092;-78
2022/01/16 06:39:07;;;;;;;46.28;16.55;;;3.80;99.90;;;;;;6308593;22;20365;-77
2022/01/16 06:41:34;;;;;;;44.95;16.42;;;3.80;99.90;;;;;;6306809;22;19995;-77
2022/01/16 06:44:00;;;;;;;43.95;16.73;;;3.80;99.90;;;;;;6308602;22;20014;-77
2022/01/16 06:46:26;;;;;;;38.22;15.27;;;3.80;99.90;;;;;;6309003;22;20007;-77
2022/01/16 06:48:52;;;;;;;39.58;15.73;;;3.80;99.90;;;;;;6308635;22;19999;-77
2022/01/16 06:51:19;;;;;;;41.42;15.63;;;3.80;99.90;;;;;;6308262;22;20544;-76
2022/01/16 06:53:46;;;;;;;41.47;16.13;;;3.80;99.90;;;;;;6308368;22;19999;-77
2022/01/16 06:56:15;;;;;;;51.20;16.58;;;3.80;99.90;;;;;;6306821;22;20438;-77
2022/01/16 06:58:40;;;;;;;39.90;16.07;;;3.80;99.90;;;;;;6308512;22;20308;-77
2022/01/16 07:01:06;;;;;;;39.30;14.82;;;3.80;99.90;;;;;;6306854;22;20003;-79
2022/01/16 07:03:32;;;;;;;38.67;15.70;;;3.80;99.90;;;;;;6307149;22;20090;-78
2022/01/16 07:05:59;;;;;;;38.05;14.82;;;3.80;99.90;;;;;;6307287;22;19999;-78
2022/01/16 07:08:26;;;;;;;37.33;13.77;;;3.80;99.90;;;;;;6306599;22;20431;-79
2022/01/16 07:10:54;;;;;;;40.15;15.73;;;3.90;99.90;;;;;;6307289;22;20334;-79
2022/01/16 07:13:21;;;;;;;36.80;14.40;;;3.90;99.90;;;;;;6309097;22;20006;-79
2022/01/16 07:15:47;;;;;;;36.90;14.13;;;3.90;99.90;;;;;;6308762;22;20003;-78
2022/01/16 07:18:13;;;;;;;35.75;12.48;;;4.00;99.90;;;;;;6308686;22;20436;-78
2022/01/16 07:20:38;;;;;;;25.40;11.25;;;4.00;99.90;;;;;;6308124;22;20037;-78
2022/01/16 07:23:05;;;;;;;28.65;11.73;;;4.10;99.90;;;;;;6306576;22;20010;-78
2022/01/16 07:25:30;;;;;;;28.77;11.45;;;4.20;99.90;;;;;;6307025;22;20010;-78
2022/01/16 07:27:56;;;;;;;25.90;10.35;;;4.20;99.90;;;;;;6308359;22;19999;-79
2022/01/16 07:30:21;;;;;;;21.25;9.43;;;4.30;99.90;;;;;;6307067;22;20330;-79
2022/01/16 07:32:47;;;;;;;24.95;9.20;;;4.30;99.90;;;;;;6306876;22;20014;-80
2022/01/16 07:35:13;;;;;;;26.30;9.88;;;4.40;99.90;;;;;;6310105;22;20035;-80
2022/01/16 07:37:38;;;;;;;23.63;8.77;;;4.50;99.90;;;;;;6307397;22;20015;-80
2022/01/16 07:40:04;;;;;;;26.58;9.85;;;4.60;99.90;;;;;;6307847;22;20296;-79
2022/01/16 07:42:30;;;;;;;22.88;8.55;;;4.60;99.90;;;;;;6308123;22;20443;-79
2022/01/16 07:44:55;;;;;;;23.27;8.48;;;4.60;99.90;;;;;;6306827;22;20007;-79
2022/01/16 07:47:21;;;;;;;21.58;8.73;;;4.60;99.90;;;;;;6309022;22;19995;-79
2022/01/16 07:49:47;;;;;;;20.48;8.82;;;4.60;99.90;;;;;;6307702;22;19995;-79
2022/01/16 07:52:12;;;;;;;18.63;7.45;;;4.60;99.90;;;;;;6308920;22;19999;-80
2022/01/16 07:54:38;;;;;;;20.30;7.35;;;4.70;99.90;;;;;;6307210;22;20004;-80
2022/01/16 07:57:04;;;;;;;20.88;7.07;;;4.70;99.90;;;;;;6309303;22;20006;-79
2022/01/16 07:59:30;;;;;;;20.58;7.05;;;4.80;99.90;;;;;;6307505;22;20338;-79
2022/01/16 08:01:55;;;;;;;15.63;6.53;;;4.80;99.90;;;;;;6314702;22;20061;-80
2022/01/16 08:04:21;;;;;;;14.20;6.00;;;4.80;99.90;;;;;;6311414;22;20003;-79
2022/01/16 08:06:46;;;;;;;16.40;6.43;;;4.80;99.90;;;;;;6312010;22;20361;-79
2022/01/16 08:09:12;;;;;;;16.65;5.60;;;4.80;99.90;;;;;;6309441;22;20422;-78
2022/01/16 08:11:37;;;;;;;14.60;5.45;;;4.90;99.90;;;;;;6308842;22;20316;-78
2022/01/16 08:14:03;;;;;;;12.65;5.63;;;5.00;99.90;;;;;;6310421;22;20025;-77
2022/01/16 08:16:29;;;;;;;10.90;4.22;;;5.00;99.90;;;;;;6310193;22;19996;-77
2022/01/16 08:18:54;;;;;;;12.05;4.72;;;5.10;99.90;;;;;;6308836;22;20006;-78
2022/01/16 08:21:20;;;;;;;11.77;4.38;;;5.20;99.90;;;;;;6309237;22;20076;-78
2022/01/16 08:23:45;;;;;;;11.60;4.90;;;5.20;99.90;;;;;;6310649;22;20017;-79
2022/01/16 08:26:11;;;;;;;8.98;4.05;;;5.30;99.90;;;;;;6310315;22;20005;-78
2022/01/16 08:28:36;;;;;;;11.25;4.20;;;5.40;99.90;;;;;;6308420;22;20035;-77
2022/01/16 08:31:02;;;;;;;10.25;3.85;;;5.50;99.90;;;;;;6310246;22;19999;-76
2022/01/16 08:33:28;;;;;;;8.63;3.92;;;5.60;99.90;;;;;;6310023;22;20078;-77
2022/01/16 08:35:53;;;;;;;10.18;4.15;;;5.60;99.90;;;;;;6310094;22;20033;-77
2022/01/16 08:38:21;;;;;;;15.82;4.45;;;5.70;99.90;;;;;;6308893;22;20010;-77
2022/01/16 08:40:46;;;;;;;7.38;3.33;;;5.70;99.90;;;;;;6308828;22;20003;-78
2022/01/16 08:43:12;;;;;;;10.57;4.63;;;5.70;99.90;;;;;;6309586;22;20007;-77
2022/01/16 08:45:39;;;;;;;13.82;4.32;;;5.60;99.90;;;;;;6310258;22;19999;-78
2022/01/16 08:48:06;;;;;;;9.80;3.65;;;5.70;99.90;;;;;;6308684;22;20010;-79
2022/01/16 08:50:33;;;;;;;10.43;3.65;;;5.70;99.90;;;;;;6308973;22;20052;-78
2022/01/16 08:52:59;;;;;;;10.48;3.78;;;5.70;99.90;;;;;;6310486;22;20022;-78
2022/01/16 08:55:25;;;;;;;11.93;3.65;;;5.70;99.90;;;;;;6310389;22;20003;-78
2022/01/16 08:57:51;;;;;;;8.32;3.45;;;5.80;99.90;;;;;;6310447;22;20435;-78
2022/01/16 09:00:17;;;;;;;9.10;4.00;;;5.80;99.90;;;;;;6312070;22;19999;-82
2022/01/16 09:02:46;;;;;;;7.22;3.00;;;5.80;99.90;;;;;;6314806;22;20038;-82
2022/01/16 09:05:11;;;;;;;;;;;5.80;99.90;;;;;;6314717;22;20004;-81
2022/01/16 09:07:37;;;;;;;8.18;3.08;;;5.80;99.90;;;;;;6312202;22;19906;-82
2022/01/16 09:10:04;;;;;;;8.23;3.08;;;5.80;99.90;;;;;;6312579;22;20002;-81
2022/01/16 09:12:30;;;;;;;9.55;3.45;;;5.90;99.90;;;;;;6313576;22;20010;-82
2022/01/16 09:14:56;;;;;;;9.07;3.25;;;5.90;99.90;;;;;;6312504;22;20019;-81
2022/01/16 09:17:22;;;;;;;10.70;3.00;;;5.90;99.90;;;;;;6315783;22;19999;-83
2022/01/16 09:19:48;;;;;;;12.00;3.13;;;5.90;99.90;;;;;;6313743;22;20010;-82
2022/01/16 09:22:14;;;;;;;8.43;3.65;;;6.00;99.90;;;;;;6332264;22;19991;-82
2022/01/16 09:24:39;;;;;;;10.48;2.75;;;8.00;99.90;;;;;;6335731;22;19984;-82
2022/01/16 09:27:05;;;;;;;10.73;3.55;;;6.00;99.90;;;;;;6333715;22;19987;-84
2022/01/16 09:29:31;;;;;;;8.40;3.15;;;6.00;99.90;;;;;;6335470;22;20003;-84
2022/01/16 09:31:57;;;;;;;8.20;4.05;;;9.30;99.90;;;;;;6334425;22;20010;-84
2022/01/16 09:34:23;;;;;;;14.93;4.28;;;6.00;99.90;;;;;;6331037;22;20026;-81
2022/01/16 09:36:48;;;;;;;11.48;5.10;;;7.30;99.90;;;;;;6327619;22;20011;-83
2022/01/16 09:39:14;;;;;;;17.02;5.15;;;7.10;99.90;;;;;;6330392;22;20000;-81
2022/01/16 09:41:41;;;;;;;18.73;7.43;;;5.80;99.90;;;;;;6332644;22;20003;-82
2022/01/16 09:44:07;;;;;;;18.65;7.40;;;9.50;99.90;;;;;;6328550;22;19997;-84
2022/01/16 09:46:35;;;;;;;22.40;7.70;;;;;;;;;;6324023;22;19996;-83
2022/01/16 09:49:02;;;;;;;30.25;8.55;;;5.90;99.90;;;;;;6321094;22;20003;-83
2022/01/16 09:51:29;;;;;;;29.73;10.20;;;4.80;99.90;;;;;;6328245;22;20002;-82
2022/01/16 09:54:02;;;;;;;33.58;10.25;;;6.10;99.90;;;;;;6321681;22;20307;-81
2022/01/16 09:56:29;;;;;;;35.70;10.50;;;6.00;99.90;;;;;;6314881;22;19999;-81
2022/01/16 09:58:55;;;;;;;32.55;11.52;;;6.00;99.90;;;;;;6334311;22;20010;-84
2022/01/16 10:01:21;;;;;;;32.08;12.27;;;5.80;99.90;;;;;;6311355;22;20003;-80
2022/01/16 10:03:47;;;;;;;37.83;12.38;;;5.90;99.90;;;;;;6313508;22;20003;-81
2022/01/16 10:06:14;;;;;;;36.70;13.52;;;5.90;99.90;;;;;;6312101;22;20474;-81
2022/01/16 10:08:41;;;;;;;38.17;12.75;;;5.90;99.90;;;;;;6309392;22;20007;-81
2022/01/16 10:11:38;;;;;;;44.33;14.48;;;5.90;99.90;;;;;;6309483;22;19995;-81
2022/01/16 10:14:20;;;;;;;45.13;14.35;;;5.90;99.90;;;;;;6313566;22;20124;-77
2022/01/16 10:16:46;;;;;;;49.97;15.75;;;5.90;99.90;;;;;;6310344;22;20003;-77
2022/01/16 10:19:41;;;;;;;41.42;13.27;;;5.80;99.90;;;;;;6312685;22;20010;-78
2022/01/16 10:22:11;;;;;;;44.38;13.95;;;5.80;99.90;;;;;;6298691;22;20015;-77
2022/01/16 10:24:39;;;;;;;41.58;14.20;;;5.80;99.90;;;;;;6310447;22;20422;-78
2022/01/16 10:27:07;;;;;;;45.85;13.68;;;5.80;99.90;;;;;;6310610;22;20077;-74
2022/01/16 10:29:41;;;;;;;42.67;13.70;;;5.80;99.90;;;;;;6313788;22;20003;-73
2022/01/16 10:32:15;;;;;;;48.83;14.70;;;5.80;99.90;;;;;;6315520;22;20364;-74
2022/01/16 10:34:42;;;;;;;50.30;13.50;;;5.80;99.90;;;;;;6312724;22;20010;-74
2022/01/16 10:37:21;;;;;;;56.00;15.93;;;5.80;99.90;;;;;;6314041;22;20007;-71
2022/01/16 10:39:52;;;;;;;60.42;16.77;;;5.70;99.90;;;;;;6309512;22;20515;-74
2022/01/16 10:42:18;;;;;;;50.83;15.98;;;5.70;99.90;;;;;;6309735;22;20000;-74
2022/01/16 10:44:44;;;;;;;48.70;14.00;;;5.70;99.90;;;;;;6310196;22;20045;-75
2022/01/16 10:47:38;;;;;;;50.08;15.27;;;5.70;99.90;;;;;;6308806;22;19999;-74
2022/01/16 10:50:25;;;;;;;45.25;15.13;;;5.70;99.90;;;;;;6309024;22;19999;-74
2022/01/16 10:53:00;;;;;;;60.83;17.00;;;5.80;99.90;;;;;;6308701;22;20003;-76
2022/01/16 10:55:56;;;;;;;56.15;16.52;;;5.70;99.90;;;;;;6308930;22;19999;-77
2022/01/16 10:58:28;;;;;;;58.83;16.40;;;5.70;99.90;;;;;;6288126;22;20057;-77
2022/01/16 11:01:05;;;;;;;65.80;18.95;;;5.70;99.90;;;;;;6310734;22;20453;-73
2022/01/16 11:03:46;;;;;;;62.00;17.48;;;5.70;99.90;;;;;;6309425;22;20100;-74
2022/01/16 11:06:13;;;;;;;62.13;16.90;;;5.70;99.90;;;;;;6307824;22;20005;-74
2022/01/16 11:08:39;;;;;;;53.75;16.08;;;5.60;99.90;;;;;;6310404;22;19999;-73
2022/01/16 11:11:07;;;;;;;45.00;13.10;;;5.70;99.90;;;;;;6307969;22;20026;-73
2022/01/16 11:13:34;;;;;;;63.65;18.55;;;5.60;99.90;;;;;;6307578;22;20027;-73
2022/01/16 11:16:05;;;;;;;60.92;17.70;;;5.60;99.90;;;;;;6307801;22;19999;-73
2022/01/16 11:18:35;;;;;;;64.35;17.85;;;5.70;99.90;;;;;;6307438;22;20017;-73
2022/01/16 11:23:43;;;;;;;67.85;19.05;;;5.70;99.90;;;;;;6310687;22;20007;-73
2022/01/16 11:26:09;;;;;;;61.10;16.50;;;5.70;99.90;;;;;;6309028;22;19995;-73
2022/01/16 11:28:35;;;;;;;62.78;18.38;;;6.30;99.90;;;;;;6309429;22;20045;-73
2022/01/16 11:31:06;;;;;;;63.13;17.40;;;5.70;99.90;;;;;;6308733;22;19995;-73
2022/01/16 11:33:33;;;;;;;65.88;17.70;;;5.70;99.90;;;;;;6307191;22;20090;-73
2022/01/16 11:35:59;;;;;;;62.45;18.55;;;5.70;99.90;;;;;;6307653;22;20008;-73
2022/01/16 11:38:31;;;;;;;66.07;18.88;;;5.70;99.90;;;;;;6308553;22;20007;-73
2022/01/16 11:41:01;;;;;;;61.45;19.08;;;5.70;99.90;;;;;;6310085;22;20004;-73
2022/01/16 11:43:35;;;;;;;61.38;18.65;;;5.70;99.90;;;;;;6310468;22;20010;-72
2022/01/16 11:46:18;;;;;;;65.80;17.67;;;5.70;99.90;;;;;;6308579;22;20086;-72
2022/01/16 11:48:47;;;;;;;73.80;18.05;;;5.70;99.90;;;;;;6310516;22;20353;-72
2022/01/16 11:51:31;;;;;;;;;;;5.70;99.90;;;;;;6310265;22;20373;-72
2022/01/16 11:54:08;;;;;;;75.60;17.48;;;5.80;99.90;;;;;;6310319;22;19906;-72
2022/01/16 11:56:40;;;;;;;63.63;17.67;;;5.80;99.90;;;;;;6311151;22;19999;-72
2022/01/16 11:59:11;;;;;;;75.35;19.38;;;5.80;99.90;;;;;;6310897;22;20019;-72
2022/01/16 12:01:44;;;;;;;57.60;17.38;;;5.80;99.90;;;;;;6310130;22;20026;-72
2022/01/16 12:04:28;;;;;;;71.82;18.55;;;5.80;99.90;;;;;;6308877;22;20003;-72
2022/01/16 12:07:12;;;;;;;73.32;16.65;;;5.70;99.90;;;;;;6310010;22;20330;-72
2022/01/16 12:09:49;;;;;;;71.10;17.63;;;5.70;99.90;;;;;;6310312;22;19995;-72
2022/01/16 12:12:14;;;;;;;68.57;19.45;;;5.80;99.90;;;;;;6310178;22;19999;-72
2022/01/16 12:14:46;;;;;;;64.40;18.02;;;5.80;99.90;;;;;;6310743;22;20011;-72
2022/01/16 12:17:40;;;;;;;71.30;20.00;;;5.80;99.90;;;;;;6310643;22;20053;-72
2022/01/16 12:20:15;;;;;;;70.20;19.00;;;5.90;99.90;;;;;;6303464;22;20319;-72
2022/01/16 12:23:04;;;;;;;77.38;19.00;;;6.00;99.90;;;;;;6309629;22;20003;-76
2022/01/16 12:25:51;;;;;;;65.63;18.77;;;6.00;99.90;;;;;;6308434;22;20369;-75
2022/01/16 12:28:22;;;;;;;75.22;20.67;;;6.10;99.90;;;;;;6308459;22;20010;-73
2022/01/16 12:30:59;;;;;;;71.97;19.63;;;6.10;99.90;;;;;;6309995;22;20326;-73
2022/01/16 12:33:45;;;;;;;70.53;18.05;;;6.10;99.90;;;;;;6310077;22;20315;-72
2022/01/16 12:36:32;;;;;;;57.55;16.58;;;6.20;99.90;;;;;;6309625;22;20011;-72
2022/01/16 12:39:24;;;;;;;68.32;16.77;;;6.20;99.90;;;;;;6308095;22;20014;-72
2022/01/16 12:41:54;;;;;;;61.10;17.42;;;6.20;99.90;;;;;;6307128;22;20003;-72
2022/01/16 12:44:19;;;;;;;64.57;18.15;;;6.30;99.90;;;;;;6310502;22;20312;-72
2022/01/16 12:46:54;;;;;;;61.10;18.45;;;6.40;99.90;;;;;;6308371;22;20010;-72
2022/01/16 12:49:28;;;;;;;58.22;17.58;;;6.40;99.90;;;;;;6309888;22;20414;-72
2022/01/16 12:51:56;;;;;;;61.67;18.08;;;6.40;99.90;;;;;;6309319;22;20330;-73
2022/01/16 12:54:29;;;;;;;54.03;16.85;;;6.40;99.90;;;;;;6309613;22;19995;-73
2022/01/16 12:56:57;;;;;;;44.50;15.15;;;6.50;99.90;;;;;;6307702;22;20003;-73
2022/01/16 12:59:36;;;;;;;53.92;15.57;;;6.60;99.90;;;;;;6309346;22;20031;-73
2022/01/16 13:02:04;;;;;;;48.95;16.20;;;6.60;99.90;;;;;;6309697;22;20056;-72
2022/01/16 13:04:55;;;;;;;53.22;16.38;;;6.60;99.90;;;;;;6309522;22;20019;-73
2022/01/16 13:07:21;;;;;;;38.55;13.23;;;6.70;99.90;;;;;;6305965;22;20007;-73
2022/01/16 13:09:46;;;;;;;41.75;14.45;;;6.70;99.90;;;;;;6307324;22;20025;-73
2022/01/16 13:12:13;;;;;;;44.28;13.45;;;6.70;99.90;;;;;;6308719;22;20078;-73
2022/01/16 13:14:41;;;;;;;40.42;13.40;;;6.80;99.90;;;;;;6309050;22;20331;-74
2022/01/16 13:17:10;;;;;;;40.85;13.13;;;6.80;99.90;;;;;;6308672;22;20066;-73
2022/01/16 13:22:13;;;;;;;33.10;11.93;;;6.90;99.90;;;;;;6309212;22;20007;-73
2022/01/16 13:24:46;;;;;;;36.60;12.18;;;6.90;99.90;;;;;;6307084;22;19999;-73
2022/01/16 13:27:27;;;;;;;34.65;12.82;;;6.90;99.90;;;;;;6308951;22;20448;-73
2022/01/16 13:30:00;;;;;;;32.90;12.07;;;6.90;99.90;;;;;;6308816;22;19996;-73
2022/01/16 13:32:27;;;;;;;33.67;10.60;;;7.00;99.90;;;;;;6308826;22;20431;-73